sensor_id;sensor_type;location;lat;lon;timestamp;pressure;altitude;pressure_sealevel;temperature;humidity
58757;BME280;44527;47.460;19.016;2024-02-21T00:01:54;101098.91;;;7.41;100.00
58757;BME280;44527;47.460;19.016;2024-02-21T00:04:56;101094.94;;;7.52;100.00
58757;BME280;44527;47.460;19.016;2024-02-21T00:07:59;101096.66;;;7.53;100.00
58757;BME280;44527;47.460;19.016;2024-02-21T00:11:03;101095.75;;;7.54;100.00
58757;BME280;44527;47.460;19.016;2024-02-21T00:14:06;101102.41;;;7.62;100.00
58757;BME280;44527;47.460;19.016;2024-02-21T00:17:09;101093.34;;;7.70;100.00
58757;BME280;44527;47.460;19.016;2024-02-21T00:20:11;101088.56;;;7.80;100.00
58757;BME280;44527;47.460;19.016;2024-02-21T00:23:14;101083.16;;;7.85;100.00
58757;BME280;44527;47.460;19.016;2024-02-21T00:26:16;101088.66;;;7.78;100.00
58757;BME280;44527;47.460;19.016;2024-02-21T00:29:19;101077.09;;;7.84;100.00
58757;BME280;44527;47.460;19.016;2024-02-21T00:32:22;101075.19;;;7.88;100.00
58757;BME280;44527;47.460;19.016;2024-02-21T00:35:25;101071.72;;;7.87;100.00
58757;BME280;44527;47.460;19.016;2024-02-21T00:38:27;101070.75;;;7.90;100.00
58757;BME280;44527;47.460;19.016;2024-02-21T00:41:30;101066.63;;;7.84;99.95
58757;BME280;44527;47.460;19.016;2024-02-21T00:44:32;101063.75;;;7.70;100.00
58757;BME280;44527;47.460;19.016;2024-02-21T00:47:35;101064.28;;;7.78;99.70
58757;BME280;44527;47.460;19.016;2024-02-21T00:50:38;101059.09;;;7.76;98.85
58757;BME280;44527;47.460;19.016;2024-02-21T00:53:42;101055.53;;;7.79;99.65
58757;BME280;44527;47.460;19.016;2024-02-21T00:56:44;101057.28;;;7.78;99.63
58757;BME280;44527;47.460;19.016;2024-02-21T00:59:47;101061.41;;;7.84;99.17
58757;BME280;44527;47.460;19.016;2024-02-21T01:02:49;101057.41;;;7.75;99.82
58757;BME280;44527;47.460;19.016;2024-02-21T01:05:55;101053.84;;;7.78;99.62
58757;BME280;44527;47.460;19.016;2024-02-21T01:08:58;101053.84;;;7.78;99.22
58757;BME280;44527;47.460;19.016;2024-02-21T01:12:00;101057.28;;;7.78;97.26
58757;BME280;44527;47.460;19.016;2024-02-21T01:15:03;101064.47;;;7.73;97.29
58757;BME280;44527;47.460;19.016;2024-02-21T01:18:07;101063.34;;;7.79;97.34
58757;BME280;44527;47.460;19.016;2024-02-21T01:21:09;101067.66;;;7.80;95.95
58757;BME280;44527;47.460;19.016;2024-02-21T01:24:13;101067.53;;;7.83;95.89
58757;BME280;44527;47.460;19.016;2024-02-21T01:27:16;101061.53;;;7.81;96.48
58757;BME280;44527;47.460;19.016;2024-02-21T01:30:19;101051.94;;;7.81;95.99
58757;BME280;44527;47.460;19.016;2024-02-21T01:33:21;101054.09;;;7.72;96.71
58757;BME280;44527;47.460;19.016;2024-02-21T01:36:24;101056.03;;;7.67;96.74
58757;BME280;44527;47.460;19.016;2024-02-21T01:39:27;101042.97;;;7.67;96.61
58757;BME280;44527;47.460;19.016;2024-02-21T01:42:30;101043.94;;;7.64;97.27
58757;BME280;44527;47.460;19.016;2024-02-21T01:45:32;101043.16;;;7.62;97.81
58757;BME280;44527;47.460;19.016;2024-02-21T01:48:35;101047.63;;;7.60;97.62
58757;BME280;44527;47.460;19.016;2024-02-21T01:51:38;101042.53;;;7.57;97.78
58757;BME280;44527;47.460;19.016;2024-02-21T01:54:42;101045.50;;;7.68;97.14
58757;BME280;44527;47.460;19.016;2024-02-21T01:57:45;101040.87;;;7.54;97.01
58757;BME280;44527;47.460;19.016;2024-02-21T02:00:48;101044.44;;;7.53;97.47
58757;BME280;44527;47.460;19.016;2024-02-21T02:03:51;101039.19;;;7.53;97.06
58757;BME280;44527;47.460;19.016;2024-02-21T02:06:55;101036.59;;;7.53;97.65
58757;BME280;44527;47.460;19.016;2024-02-21T02:09:58;101033.84;;;7.56;97.50
58757;BME280;44527;47.460;19.016;2024-02-21T02:13:01;101034.88;;;7.52;95.67
58757;BME280;44527;47.460;19.016;2024-02-21T02:16:05;101038.44;;;7.50;96.65
58757;BME280;44527;47.460;19.016;2024-02-21T02:19:07;101041.28;;;7.45;95.76
58757;BME280;44527;47.460;19.016;2024-02-21T02:22:19;101040.69;;;7.39;95.66
58757;BME280;44527;47.460;19.016;2024-02-21T02:25:25;101040.94;;;7.53;94.42
58757;BME280;44527;47.460;19.016;2024-02-21T02:28:28;101045.53;;;7.48;94.34
58757;BME280;44527;47.460;19.016;2024-02-21T02:31:31;101031.62;;;7.47;94.15
58757;BME280;44527;47.460;19.016;2024-02-21T02:34:34;101032.66;;;7.43;94.78
58757;BME280;44527;47.460;19.016;2024-02-21T02:37:36;101037.44;;;7.54;93.97
58757;BME280;44527;47.460;19.016;2024-02-21T02:40:41;101039.12;;;7.55;93.50
58757;BME280;44527;47.460;19.016;2024-02-21T02:43:44;101039.06;;;7.56;93.57
58757;BME280;44527;47.460;19.016;2024-02-21T02:46:47;101040.87;;;7.54;93.00
58757;BME280;44527;47.460;19.016;2024-02-21T02:49:50;101029.72;;;7.51;93.18
58757;BME280;44527;47.460;19.016;2024-02-21T02:52:54;101035.00;;;7.49;93.63
58757;BME280;44527;47.460;19.016;2024-02-21T02:55:57;101024.81;;;7.43;93.71
58757;BME280;44527;47.460;19.016;2024-02-21T02:59:00;101032.50;;;7.46;93.54
58757;BME280;44527;47.460;19.016;2024-02-21T03:02:03;101026.97;;;7.33;94.32
58757;BME280;44527;47.460;19.016;2024-02-21T03:05:20;101039.19;;;7.33;94.97
58757;BME280;44527;47.460;19.016;2024-02-21T03:08:23;101040.22;;;7.29;94.85
58757;BME280;44527;47.460;19.016;2024-02-21T03:11:27;101041.91;;;7.30;95.69
58757;BME280;44527;47.460;19.016;2024-02-21T03:14:32;101043.22;;;7.40;94.74
58757;BME280;44527;47.460;19.016;2024-02-21T03:17:35;101038.38;;;7.31;94.80
58757;BME280;44527;47.460;19.016;2024-02-21T03:20:38;101038.75;;;7.22;96.76
58757;BME280;44527;47.460;19.016;2024-02-21T03:23:41;101029.81;;;7.27;96.34
58757;BME280;44527;47.460;19.016;2024-02-21T03:26:44;101038.50;;;7.28;96.64
58757;BME280;44527;47.460;19.016;2024-02-21T03:29:47;101043.94;;;7.23;96.05
58757;BME280;44527;47.460;19.016;2024-02-21T03:32:49;101044.53;;;7.30;96.09
58757;BME280;44527;47.460;19.016;2024-02-21T03:35:52;101045.16;;;7.14;97.32
58757;BME280;44527;47.460;19.016;2024-02-21T03:38:55;101057.47;;;7.11;98.47
58757;BME280;44527;47.460;19.016;2024-02-21T03:41:58;101050.63;;;7.08;98.87
58757;BME280;44527;47.460;19.016;2024-02-21T03:45:03;101046.25;;;7.09;97.89
58757;BME280;44527;47.460;19.016;2024-02-21T03:48:06;101048.06;;;7.07;98.33
58757;BME280;44527;47.460;19.016;2024-02-21T03:51:09;101045.88;;;6.96;97.49
58757;BME280;44527;47.460;19.016;2024-02-21T03:54:12;101045.16;;;6.93;97.46
58757;BME280;44527;47.460;19.016;2024-02-21T03:57:15;101044.69;;;6.83;97.60
58757;BME280;44527;47.460;19.016;2024-02-21T04:00:20;101041.44;;;6.76;97.66
58757;BME280;44527;47.460;19.016;2024-02-21T04:03:22;101041.63;;;6.72;97.35
58757;BME280;44527;47.460;19.016;2024-02-21T04:06:25;101041.75;;;6.68;98.41
58757;BME280;44527;47.460;19.016;2024-02-21T04:09:28;101048.78;;;6.66;98.85
58757;BME280;44527;47.460;19.016;2024-02-21T04:12:30;101038.66;;;6.59;99.84
58757;BME280;44527;47.460;19.016;2024-02-21T04:15:33;101033.59;;;6.54;100.00
58757;BME280;44527;47.460;19.016;2024-02-21T04:18:36;101032.88;;;6.51;100.00
58757;BME280;44527;47.460;19.016;2024-02-21T04:21:39;101034.06;;;6.42;100.00
58757;BME280;44527;47.460;19.016;2024-02-21T04:24:41;101029.94;;;6.36;100.00
58757;BME280;44527;47.460;19.016;2024-02-21T04:27:44;101025.28;;;6.44;100.00
58757;BME280;44527;47.460;19.016;2024-02-21T04:30:47;101021.16;;;6.39;100.00
58757;BME280;44527;47.460;19.016;2024-02-21T04:33:50;101029.94;;;6.36;100.00
58757;BME280;44527;47.460;19.016;2024-02-21T04:36:52;101026.87;;;6.25;100.00
58757;BME280;44527;47.460;19.016;2024-02-21T04:39:55;101023.47;;;6.23;100.00
58757;BME280;44527;47.460;19.016;2024-02-21T04:42:58;101026.81;;;6.27;100.00
58757;BME280;44527;47.460;19.016;2024-02-21T04:46:00;101021.09;;;6.17;100.00
58757;BME280;44527;47.460;19.016;2024-02-21T04:49:03;101028.53;;;6.04;100.00
58757;BME280;44527;47.460;19.016;2024-02-21T04:52:06;101017.25;;;6.04;100.00
58757;BME280;44527;47.460;19.016;2024-02-21T04:55:08;101030.44;;;5.99;100.00
58757;BME280;44527;47.460;19.016;2024-02-21T04:58:11;101028.69;;;5.99;100.00
58757;BME280;44527;47.460;19.016;2024-02-21T05:01:13;101035.72;;;5.97;100.00
58757;BME280;44527;47.460;19.016;2024-02-21T05:04:16;101029.78;;;5.94;100.00
58757;BME280;44527;47.460;19.016;2024-02-21T05:07:18;101035.88;;;5.93;100.00
58757;BME280;44527;47.460;19.016;2024-02-21T05:10:22;101035.94;;;5.90;100.00
58757;BME280;44527;47.460;19.016;2024-02-21T05:13:24;101035.88;;;5.93;100.00
58757;BME280;44527;47.460;19.016;2024-02-21T05:16:28;101047.91;;;5.97;100.00
58757;BME280;44527;47.460;19.016;2024-02-21T05:19:30;101042.72;;;5.95;100.00
58757;BME280;44527;47.460;19.016;2024-02-21T05:22:33;101041.81;;;5.96;100.00
58757;BME280;44527;47.460;19.016;2024-02-21T05:25:35;101038.22;;;6.01;100.00
58757;BME280;44527;47.460;19.016;2024-02-21T05:28:38;101035.09;;;5.89;100.00
58757;BME280;44527;47.460;19.016;2024-02-21T05:34:53;101028.53;;;5.79;100.00
58757;BME280;44527;47.460;19.016;2024-02-21T05:37:55;101038.00;;;5.82;100.00
58757;BME280;44527;47.460;19.016;2024-02-21T05:40:58;101032.66;;;5.85;100.00
58757;BME280;44527;47.460;19.016;2024-02-21T05:44:01;101024.75;;;5.88;100.00
58757;BME280;44527;47.460;19.016;2024-02-21T05:47:04;101028.19;;;6.13;100.00
58757;BME280;44527;47.460;19.016;2024-02-21T05:50:06;101032.44;;;6.16;100.00
58757;BME280;44527;47.460;19.016;2024-02-21T05:53:09;101027.69;;;6.04;100.00
58757;BME280;44527;47.460;19.016;2024-02-21T05:56:13;101033.22;;;5.94;100.00
58757;BME280;44527;47.460;19.016;2024-02-21T05:59:15;101033.63;;;5.82;100.00
58757;BME280;44527;47.460;19.016;2024-02-21T06:02:18;101040.41;;;5.86;100.00
58757;BME280;44527;47.460;19.016;2024-02-21T06:05:21;101044.72;;;5.87;100.00
58757;BME280;44527;47.460;19.016;2024-02-21T06:08:23;101051.69;;;5.87;100.00
58757;BME280;44527;47.460;19.016;2024-02-21T06:11:26;101053.28;;;5.91;100.00
58757;BME280;44527;47.460;19.016;2024-02-21T06:14:29;101051.34;;;5.72;100.00
58757;BME280;44527;47.460;19.016;2024-02-21T06:17:31;101052.75;;;5.81;100.00
58757;BME280;44527;47.460;19.016;2024-02-21T06:20:34;101049.06;;;5.87;100.00
58757;BME280;44527;47.460;19.016;2024-02-21T06:23:39;101049.63;;;5.96;100.00
58757;BME280;44527;47.460;19.016;2024-02-21T06:26:41;101051.53;;;6.16;100.00
58757;BME280;44527;47.460;19.016;2024-02-21T06:29:44;101056.66;;;6.43;100.00
58757;BME280;44527;47.460;19.016;2024-02-21T06:32:46;101046.25;;;6.65;100.00
58757;BME280;44527;47.460;19.016;2024-02-21T06:35:49;101049.81;;;6.84;100.00
58757;BME280;44527;47.460;19.016;2024-02-21T06:38:54;101057.16;;;7.19;98.36
58757;BME280;44527;47.460;19.016;2024-02-21T06:41:57;101058.72;;;7.45;95.60
58757;BME280;44527;47.460;19.016;2024-02-21T06:45:05;101060.59;;;7.62;94.90
58757;BME280;44527;47.460;19.016;2024-02-21T06:48:07;101063.87;;;7.87;93.74
58757;BME280;44527;47.460;19.016;2024-02-21T06:51:10;101052.84;;;8.20;91.52
58757;BME280;44527;47.460;19.016;2024-02-21T06:54:12;101051.59;;;8.28;91.69
58757;BME280;44527;47.460;19.016;2024-02-21T06:57:15;101047.16;;;8.31;89.95
58757;BME280;44527;47.460;19.016;2024-02-21T07:00:18;101044.69;;;8.46;90.28
58757;BME280;44527;47.460;19.016;2024-02-21T07:03:23;101051.69;;;8.65;87.15
58757;BME280;44527;47.460;19.016;2024-02-21T07:06:26;101053.91;;;9.10;85.69
58757;BME280;44527;47.460;19.016;2024-02-21T07:09:29;101054.31;;;9.55;81.92
58757;BME280;44527;47.460;19.016;2024-02-21T07:12:34;101060.37;;;9.90;79.24
58757;BME280;44527;47.460;19.016;2024-02-21T07:15:37;101063.97;;;10.71;75.69
58757;BME280;44527;47.460;19.016;2024-02-21T07:18:40;101070.53;;;11.10;72.86
58757;BME280;44527;47.460;19.016;2024-02-21T07:21:43;101075.50;;;11.31;74.39
58757;BME280;44527;47.460;19.016;2024-02-21T07:24:45;101072.34;;;10.94;73.52
58757;BME280;44527;47.460;19.016;2024-02-21T07:27:48;101085.84;;;10.39;75.59
58757;BME280;44527;47.460;19.016;2024-02-21T07:30:50;101073.69;;;10.20;77.20
58757;BME280;44527;47.460;19.016;2024-02-21T07:33:53;101084.13;;;10.04;78.59
58757;BME280;44527;47.460;19.016;2024-02-21T07:36:57;101084.91;;;9.72;80.97
58757;BME280;44527;47.460;19.016;2024-02-21T07:39:59;101082.91;;;9.59;81.63
58757;BME280;44527;47.460;19.016;2024-02-21T07:43:03;101087.84;;;9.65;82.20
58757;BME280;44527;47.460;19.016;2024-02-21T07:46:05;101084.28;;;9.66;81.89
58757;BME280;44527;47.460;19.016;2024-02-21T07:49:07;101092.38;;;9.44;81.76
58757;BME280;44527;47.460;19.016;2024-02-21T07:52:10;101089.62;;;9.11;83.91
58757;BME280;44527;47.460;19.016;2024-02-21T07:55:13;101099.66;;;9.20;83.58
58757;BME280;44527;47.460;19.016;2024-02-21T07:58:15;101093.81;;;9.15;83.36
58757;BME280;44527;47.460;19.016;2024-02-21T08:01:21;101094.53;;;9.36;83.01
58757;BME280;44527;47.460;19.016;2024-02-21T08:04:24;101091.00;;;9.55;82.13
58757;BME280;44527;47.460;19.016;2024-02-21T08:07:27;101097.78;;;9.94;79.42
58757;BME280;44527;47.460;19.016;2024-02-21T08:10:31;101093.56;;;10.24;79.81
58757;BME280;44527;47.460;19.016;2024-02-21T08:13:34;101103.75;;;10.79;77.11
58757;BME280;44527;47.460;19.016;2024-02-21T08:16:37;101098.50;;;11.11;74.53
58757;BME280;44527;47.460;19.016;2024-02-21T08:19:39;101104.13;;;11.35;73.69
58757;BME280;44527;47.460;19.016;2024-02-21T08:22:41;101095.47;;;11.49;71.64
58757;BME280;44527;47.460;19.016;2024-02-21T08:25:44;101087.13;;;11.57;71.05
58757;BME280;44527;47.460;19.016;2024-02-21T08:28:47;101089.75;;;11.57;72.73
58757;BME280;44527;47.460;19.016;2024-02-21T08:31:49;101099.44;;;11.56;71.63
58757;BME280;44527;47.460;19.016;2024-02-21T08:34:52;101099.00;;;11.64;71.29
58757;BME280;44527;47.460;19.016;2024-02-21T08:37:55;101100.59;;;11.66;70.53
58757;BME280;44527;47.460;19.016;2024-02-21T08:40:57;101092.72;;;11.81;71.31
58757;BME280;44527;47.460;19.016;2024-02-21T08:44:00;101097.03;;;12.26;66.50
58757;BME280;44527;47.460;19.016;2024-02-21T08:47:02;101094.87;;;12.33;64.93
58757;BME280;44527;47.460;19.016;2024-02-21T08:50:07;101094.16;;;12.31;64.98
58757;BME280;44527;47.460;19.016;2024-02-21T08:53:24;101089.22;;;12.39;64.44
58757;BME280;44527;47.460;19.016;2024-02-21T08:56:26;101102.38;;;11.96;65.12
58757;BME280;44527;47.460;19.016;2024-02-21T08:59:29;101093.94;;;11.91;66.30
58757;BME280;44527;47.460;19.016;2024-02-21T09:02:31;101094.47;;;11.96;66.94
58757;BME280;44527;47.460;19.016;2024-02-21T09:05:34;101090.81;;;11.68;68.11
58757;BME280;44527;47.460;19.016;2024-02-21T09:08:37;101091.94;;;11.34;70.29
58757;BME280;44527;47.460;19.016;2024-02-21T09:11:40;101087.56;;;11.19;70.82
58757;BME280;44527;47.460;19.016;2024-02-21T09:14:43;101084.84;;;11.04;70.99
58757;BME280;44527;47.460;19.016;2024-02-21T09:17:45;101079.44;;;10.92;73.70
58757;BME280;44527;47.460;19.016;2024-02-21T09:20:47;101085.94;;;11.16;71.99
58757;BME280;44527;47.460;19.016;2024-02-21T09:23:50;101082.03;;;11.39;70.98
58757;BME280;44527;47.460;19.016;2024-02-21T09:26:52;101080.97;;;11.72;70.72
58757;BME280;44527;47.460;19.016;2024-02-21T09:29:55;101075.91;;;11.83;68.15
58757;BME280;44527;47.460;19.016;2024-02-21T09:32:57;101071.22;;;12.18;68.09
58757;BME280;44527;47.460;19.016;2024-02-21T09:36:02;101077.47;;;12.30;64.11
58757;BME280;44527;47.460;19.016;2024-02-21T09:39:05;101082.56;;;12.62;63.70
58757;BME280;44527;47.460;19.016;2024-02-21T09:42:11;101077.34;;;12.89;63.55
58757;BME280;44527;47.460;19.016;2024-02-21T09:45:20;101080.63;;;13.20;61.46
58757;BME280;44527;47.460;19.016;2024-02-21T09:48:39;101081.56;;;13.46;59.86
58757;BME280;44527;47.460;19.016;2024-02-21T09:51:45;101087.97;;;13.15;61.30
58757;BME280;44527;47.460;19.016;2024-02-21T09:54:50;101076.16;;;13.07;60.83
58757;BME280;44527;47.460;19.016;2024-02-21T09:57:55;101082.00;;;12.98;60.40
58757;BME280;44527;47.460;19.016;2024-02-21T10:01:00;101079.88;;;12.76;60.32
58757;BME280;44527;47.460;19.016;2024-02-21T10:04:05;101078.22;;;12.61;62.06
58757;BME280;44527;47.460;19.016;2024-02-21T10:07:08;101074.69;;;12.89;62.09
58757;BME280;44527;47.460;19.016;2024-02-21T10:10:11;101065.03;;;13.02;61.51
58757;BME280;44527;47.460;19.016;2024-02-21T10:13:27;101066.94;;;13.00;61.75
58757;BME280;44527;47.460;19.016;2024-02-21T10:16:30;101064.84;;;13.05;60.86
58757;BME280;44527;47.460;19.016;2024-02-21T10:19:34;101062.00;;;13.08;60.46
58757;BME280;44527;47.460;19.016;2024-02-21T10:22:38;101059.84;;;13.01;61.18
58757;BME280;44527;47.460;19.016;2024-02-21T10:25:41;101052.25;;;12.96;61.56
58757;BME280;44527;47.460;19.016;2024-02-21T10:28:48;101054.22;;;12.80;61.72
58757;BME280;44527;47.460;19.016;2024-02-21T10:32:06;101048.47;;;12.73;62.14
58757;BME280;44527;47.460;19.016;2024-02-21T10:35:10;101050.44;;;12.70;61.55
58757;BME280;44527;47.460;19.016;2024-02-21T10:38:13;101045.56;;;12.63;60.75
58757;BME280;44527;47.460;19.016;2024-02-21T10:41:19;101035.34;;;12.59;61.38
58757;BME280;44527;47.460;19.016;2024-02-21T10:44:22;101036.00;;;12.62;62.30
58757;BME280;44527;47.460;19.016;2024-02-21T10:47:28;101033.34;;;12.62;61.51
58757;BME280;44527;47.460;19.016;2024-02-21T10:57:16;101013.94;;;12.78;60.26
58757;BME280;44527;47.460;19.016;2024-02-21T11:00:19;101012.47;;;12.74;60.69
58757;BME280;44527;47.460;19.016;2024-02-21T11:03:22;101008.81;;;12.62;62.21
58757;BME280;44527;47.460;19.016;2024-02-21T11:06:26;101006.31;;;12.73;60.66
58757;BME280;44527;47.460;19.016;2024-02-21T11:09:30;100991.75;;;12.95;59.96
58757;BME280;44527;47.460;19.016;2024-02-21T11:12:36;100984.31;;;13.01;59.64
58757;BME280;44527;47.460;19.016;2024-02-21T11:15:38;100967.12;;;13.48;59.57
58757;BME280;44527;47.460;19.016;2024-02-21T11:18:41;100966.06;;;13.76;57.00
58757;BME280;44527;47.460;19.016;2024-02-21T11:21:43;100965.00;;;13.79;56.70
58757;BME280;44527;47.460;19.016;2024-02-21T11:24:46;100964.25;;;13.77;56.47
58757;BME280;44527;47.460;19.016;2024-02-21T11:27:49;100958.25;;;13.75;56.56
58757;BME280;44527;47.460;19.016;2024-02-21T11:30:51;100956.16;;;13.54;55.27
58757;BME280;44527;47.460;19.016;2024-02-21T11:33:54;100951.94;;;13.77;56.20
58757;BME280;44527;47.460;19.016;2024-02-21T11:36:56;100955.47;;;13.89;54.83
58757;BME280;44527;47.460;19.016;2024-02-21T11:39:59;100948.84;;;13.71;54.82
58757;BME280;44527;47.460;19.016;2024-02-21T11:43:02;100938.94;;;13.49;54.20
58757;BME280;44527;47.460;19.016;2024-02-21T11:46:06;100947.84;;;13.08;56.69
58757;BME280;44527;47.460;19.016;2024-02-21T11:49:09;100943.81;;;13.29;56.58
58757;BME280;44527;47.460;19.016;2024-02-21T11:52:12;100940.22;;;13.56;55.78
58757;BME280;44527;47.460;19.016;2024-02-21T11:55:17;100933.56;;;13.76;55.89
58757;BME280;44527;47.460;19.016;2024-02-21T11:58:20;100926.50;;;13.64;55.48
58757;BME280;44527;47.460;19.016;2024-02-21T12:01:23;100928.94;;;13.41;56.15
58757;BME280;44527;47.460;19.016;2024-02-21T12:04:27;100933.94;;;13.19;56.70
58757;BME280;44527;47.460;19.016;2024-02-21T12:07:31;100930.50;;;12.91;57.97
58757;BME280;44527;47.460;19.016;2024-02-21T12:10:35;100921.22;;;12.85;58.08
58757;BME280;44527;47.460;19.016;2024-02-21T12:13:38;100924.66;;;12.73;57.53
58757;BME280;44527;47.460;19.016;2024-02-21T12:16:42;100920.72;;;12.53;57.53
58757;BME280;44527;47.460;19.016;2024-02-21T12:19:50;100913.31;;;12.46;58.93
58757;BME280;44527;47.460;19.016;2024-02-21T12:22:53;100917.19;;;12.40;58.45
58757;BME280;44527;47.460;19.016;2024-02-21T12:25:59;100909.84;;;12.45;57.75
58757;BME280;44527;47.460;19.016;2024-02-21T12:29:01;100906.56;;;12.41;58.59
58757;BME280;44527;47.460;19.016;2024-02-21T12:32:04;100905.88;;;12.25;58.10
58757;BME280;44527;47.460;19.016;2024-02-21T12:35:07;100899.62;;;12.40;57.44
58757;BME280;44527;47.460;19.016;2024-02-21T12:38:12;100907.78;;;12.36;57.25
58757;BME280;44527;47.460;19.016;2024-02-21T12:41:16;100901.28;;;12.41;57.66
58757;BME280;44527;47.460;19.016;2024-02-21T12:44:18;100895.50;;;12.76;56.52
58757;BME280;44527;47.460;19.016;2024-02-21T12:47:21;100900.28;;;12.97;54.48
58757;BME280;44527;47.460;19.016;2024-02-21T12:50:25;100887.87;;;13.11;55.00
58757;BME280;44527;47.460;19.016;2024-02-21T12:53:28;100880.66;;;13.41;54.39
58757;BME280;44527;47.460;19.016;2024-02-21T12:56:35;100878.28;;;13.49;54.12
58757;BME280;44527;47.460;19.016;2024-02-21T12:59:39;100877.37;;;13.50;54.36
58757;BME280;44527;47.460;19.016;2024-02-21T13:02:41;100866.69;;;13.51;53.91
58757;BME280;44527;47.460;19.016;2024-02-21T13:05:45;100867.22;;;13.56;53.49
58757;BME280;44527;47.460;19.016;2024-02-21T13:08:47;100855.41;;;13.49;54.15
58757;BME280;44527;47.460;19.016;2024-02-21T13:11:50;100856.47;;;13.60;54.59
58757;BME280;44527;47.460;19.016;2024-02-21T13:14:53;100867.13;;;13.45;53.71
58757;BME280;44527;47.460;19.016;2024-02-21T13:17:57;100859.41;;;13.55;52.10
58757;BME280;44527;47.460;19.016;2024-02-21T13:21:00;100848.88;;;13.42;52.73
58757;BME280;44527;47.460;19.016;2024-02-21T13:24:03;100850.34;;;13.46;53.01
58757;BME280;44527;47.460;19.016;2024-02-21T13:27:06;100850.44;;;13.57;52.56
58757;BME280;44527;47.460;19.016;2024-02-21T13:30:10;100847.81;;;13.45;53.22
58757;BME280;44527;47.460;19.016;2024-02-21T13:33:13;100836.47;;;13.31;52.97
58757;BME280;44527;47.460;19.016;2024-02-21T13:36:16;100830.00;;;13.23;52.77
58757;BME280;44527;47.460;19.016;2024-02-21T13:39:19;100828.84;;;13.01;53.67
58757;BME280;44527;47.460;19.016;2024-02-21T13:42:21;100827.88;;;12.77;54.28
58757;BME280;44527;47.460;19.016;2024-02-21T13:45:24;100824.34;;;12.63;54.96
58757;BME280;44527;47.460;19.016;2024-02-21T13:48:27;100829.53;;;12.52;56.01
58757;BME280;44527;47.460;19.016;2024-02-21T13:51:34;100828.38;;;12.29;56.19
58757;BME280;44527;47.460;19.016;2024-02-21T13:54:40;100822.97;;;12.18;57.10
58757;BME280;44527;47.460;19.016;2024-02-21T13:57:44;100815.28;;;12.15;56.81
58757;BME280;44527;47.460;19.016;2024-02-21T14:00:46;100805.94;;;11.96;57.56
58757;BME280;44527;47.460;19.016;2024-02-21T14:03:49;100809.09;;;11.89;57.35
58757;BME280;44527;47.460;19.016;2024-02-21T14:06:51;100803.53;;;11.79;57.48
58757;BME280;44527;47.460;19.016;2024-02-21T14:09:55;100813.59;;;11.87;57.56
58757;BME280;44527;47.460;19.016;2024-02-21T14:12:57;100804.19;;;11.97;57.06
58757;BME280;44527;47.460;19.016;2024-02-21T14:16:00;100814.59;;;11.99;56.40
58757;BME280;44527;47.460;19.016;2024-02-21T14:19:03;100821.09;;;11.93;56.77
58757;BME280;44527;47.460;19.016;2024-02-21T14:22:05;100809.84;;;11.91;56.61
58757;BME280;44527;47.460;19.016;2024-02-21T14:25:08;100805.94;;;11.96;57.11
58757;BME280;44527;47.460;19.016;2024-02-21T14:28:11;100811.47;;;12.06;56.99
58757;BME280;44527;47.460;19.016;2024-02-21T14:31:13;100804.34;;;12.21;56.26
58757;BME280;44527;47.460;19.016;2024-02-21T14:34:16;100813.34;;;12.31;56.44
58757;BME280;44527;47.460;19.016;2024-02-21T14:37:18;100800.47;;;12.27;54.40
58757;BME280;44527;47.460;19.016;2024-02-21T14:40:21;100802.31;;;12.12;54.88
58757;BME280;44527;47.460;19.016;2024-02-21T14:43:23;100801.25;;;12.02;55.39
58757;BME280;44527;47.460;19.016;2024-02-21T14:46:26;100795.22;;;12.00;54.92
58757;BME280;44527;47.460;19.016;2024-02-21T14:49:31;100796.50;;;11.94;55.46
58757;BME280;44527;47.460;19.016;2024-02-21T14:52:34;100793.94;;;11.92;56.90
58757;BME280;44527;47.460;19.016;2024-02-21T14:55:38;100796.69;;;11.91;56.71
58757;BME280;44527;47.460;19.016;2024-02-21T14:58:41;100793.09;;;11.92;56.10
58757;BME280;44527;47.460;19.016;2024-02-21T15:01:43;100791.34;;;12.05;57.02
58757;BME280;44527;47.460;19.016;2024-02-21T15:04:47;100785.59;;;12.13;56.38
58757;BME280;44527;47.460;19.016;2024-02-21T15:07:50;100782.87;;;12.14;55.55
58757;BME280;44527;47.460;19.016;2024-02-21T15:10:55;100779.03;;;12.06;55.61
58757;BME280;44527;47.460;19.016;2024-02-21T15:13:57;100775.28;;;12.10;55.74
58757;BME280;44527;47.460;19.016;2024-02-21T15:17:00;100772.41;;;12.00;55.70
58757;BME280;44527;47.460;19.016;2024-02-21T15:20:03;100775.28;;;12.10;55.23
58757;BME280;44527;47.460;19.016;2024-02-21T15:23:10;100777.06;;;12.09;56.04
58757;BME280;44527;47.460;19.016;2024-02-21T15:26:12;100769.66;;;12.02;55.33
58757;BME280;44527;47.460;19.016;2024-02-21T15:29:18;100771.75;;;11.96;55.20
58757;BME280;44527;47.460;19.016;2024-02-21T15:32:20;100780.91;;;11.91;55.83
58757;BME280;44527;47.460;19.016;2024-02-21T15:35:24;100761.75;;;11.89;55.88
58757;BME280;44527;47.460;19.016;2024-02-21T15:38:28;100766.72;;;11.79;55.47
58757;BME280;44527;47.460;19.016;2024-02-21T15:41:31;100764.38;;;11.74;56.42
58757;BME280;44527;47.460;19.016;2024-02-21T15:44:33;100764.56;;;11.71;56.95
58757;BME280;44527;47.460;19.016;2024-02-21T15:47:35;100755.69;;;11.60;58.08
58757;BME280;44527;47.460;19.016;2024-02-21T15:50:38;100751.56;;;11.56;57.69
58757;BME280;44527;47.460;19.016;2024-02-21T15:53:40;100759.75;;;11.51;58.06
58757;BME280;44527;47.460;19.016;2024-02-21T15:56:47;100758.63;;;11.41;59.30
58757;BME280;44527;47.460;19.016;2024-02-21T15:59:50;100757.97;;;11.37;59.40